Krabi, Thaïlande

08:43 ICT le 28 septembre 2016 (GMT +0700)
Ao Nang, Krabi | | Change Station

Alt. 177 ft 8.05 °N, 98.84 °E | Updated 2 minutes ago

Rain
Pluie
77.2 ° F
Paraît 78 ° F
N
0.0
Vent Variable Vent de SSE
Gusts 0.0 mph

Aujourd'hui
Haut(e) -- | Bas -- ° F
--% Risque de précip.
Hier
Haut(e) -- | Bas -- ° F
Precip. -- pouce
Pression 29.92 pouce
Visibilité 2.5 Miles terrestres
Nuages Peu 1600 ft
Nuages épars 1800 ft
Nuageux 10000 ft
indice de chaleur 78 ° F
Point de rosée 76 ° F
Humidité 96%
Précipitations 0.33 pouce
Profondeur de la couche neigeuse Non disponible.
6:12 AM 6:16 PM
Lune descendante, 8% visible
METAR VTSP 280130Z VRB10KT 4000 RA FEW016 SCT018 BKN100 26/23 Q1013 TEMPO FM0145 TL0245 25015KTG30KT SHRA
Pression 29.92 pouce
Visibilité 2.5 Miles terrestres
Nuages Peu 1600 ft
Nuages épars 1800 ft
Nuageux 10000 ft
indice de chaleur 78 ° F
Point de rosée 76 ° F
Humidité 96%
Précipitations 0.33 pouce
Profondeur de la couche neigeuse Non disponible.
6:12 AM 6:16 PM
Lune descendante, 8% visible
METAR VTSP 280130Z VRB10KT 4000 RA FEW016 SCT018 BKN100 26/23 Q1013 TEMPO FM0145 TL0245 25015KTG30KT SHRA

10-Day Weather Forecast

No radar image for this location.
×

Almanac

Astronomie

Sep. 28, 2016 Lever Coucher
Temps réel
Crépuscule civil
Crépuscule nautique
Crépuscule astronomique
Lune
Durée de lumière visible
Longueur du jour
Tomorrow will be .
, % of the Moon is Illuminated

Extrêmes aujourd'hui

Country Highs Country Lows

Community

WunderPhotos

Upload Photos

1,942,178 Photos téléchargées !

WunderBlog® & News

Nearby

Qualité de l'air

  Qualité de l'air Indice de la qualité de l'air Polluant
Not available.

Épaisseur de neige

Station Depth Altitude

Activité sismique

Ville Distance Mag. Time & Date
Minimum magnitude displayed is 2.5.

Températures des eaux côtières

Lieu Température

Stations

Stations météo à proximité

Emplacement de la station Température Refroidissement éolien Point de rosée Humidité Vent Precip. Alt. Mise à jour Type